createdAt,value
2023-02-24T00:02:07.209Z,27.50
2023-02-24T00:05:15.117Z,26.00
2023-02-24T00:08:23.080Z,26.60
2023-02-24T00:11:31.186Z,27.20
2023-02-24T00:14:38.898Z,31.90
2023-02-24T00:17:46.785Z,21.40
2023-02-24T00:20:55.050Z,26.90
2023-02-24T00:24:02.777Z,22.80
2023-02-24T00:27:10.894Z,24.90
2023-02-24T00:30:19.373Z,26.70
2023-02-24T00:33:26.968Z,21.40
2023-02-24T00:36:35.327Z,25.10
2023-02-24T00:39:43.871Z,18.00
2023-02-24T00:42:51.532Z,26.30
2023-02-24T00:45:59.687Z,36.60
2023-02-24T00:49:07.996Z,29.80
2023-02-24T00:52:15.776Z,26.50
2023-02-24T00:55:24.326Z,20.70
2023-02-24T00:58:31.931Z,26.40
2023-02-24T01:01:39.790Z,19.50
2023-02-24T01:04:47.681Z,29.00
2023-02-24T01:07:55.516Z,23.60
2023-02-24T01:11:03.906Z,25.00
2023-02-24T01:14:11.931Z,24.90
2023-02-24T01:17:19.684Z,24.80
2023-02-24T01:20:27.885Z,32.40
2023-02-24T01:23:35.216Z,29.20
2023-02-24T01:26:43.409Z,23.30
2023-02-24T01:29:51.537Z,27.40
2023-02-24T01:32:59.361Z,30.70
2023-02-24T01:36:08.145Z,35.10
2023-02-24T01:39:16.031Z,32.70
2023-02-24T01:42:23.977Z,30.10
2023-02-24T01:45:32.133Z,27.00
2023-02-24T01:48:40.118Z,30.50
2023-02-24T01:51:47.896Z,30.20
2023-02-24T01:54:55.776Z,41.00
2023-02-24T01:58:03.736Z,31.10
2023-02-24T02:01:11.491Z,29.20
2023-02-24T02:04:18.560Z,30.20
2023-02-24T02:07:26.682Z,29.70
2023-02-24T02:10:34.289Z,25.30
2023-02-24T02:13:41.965Z,27.50
2023-02-24T02:16:49.547Z,37.40
2023-02-24T02:19:56.676Z,40.40
2023-02-24T02:23:04.170Z,29.00
2023-02-24T02:26:11.856Z,35.00
2023-02-24T02:29:19.056Z,33.90
2023-02-24T02:32:27.189Z,40.70
2023-02-24T02:35:34.842Z,43.80
2023-02-24T02:38:42.046Z,34.60
2023-02-24T02:41:49.726Z,31.90
2023-02-24T02:44:58.101Z,34.00
2023-02-24T02:48:05.422Z,36.10
2023-02-24T02:51:12.964Z,32.40
2023-02-24T02:54:20.393Z,31.40
2023-02-24T02:57:28.234Z,23.90
2023-02-24T03:00:35.539Z,23.10
2023-02-24T03:03:42.936Z,24.30
2023-02-24T03:06:50.789Z,25.00
2023-02-24T03:09:58.063Z,24.40
2023-02-24T03:13:05.766Z,24.90
2023-02-24T03:16:13.205Z,28.90
2023-02-24T03:19:20.306Z,30.50
2023-02-24T03:22:27.845Z,24.80
2023-02-24T03:25:35.447Z,27.30
2023-02-24T03:28:42.708Z,31.20
2023-02-24T03:31:50.440Z,29.60
2023-02-24T03:34:57.948Z,25.20
2023-02-24T03:38:05.329Z,19.80
2023-02-24T03:41:12.719Z,24.30
2023-02-24T03:44:20.626Z,19.80
2023-02-24T03:47:28.178Z,24.60
2023-02-24T03:50:36.143Z,23.20
2023-02-24T03:53:43.897Z,18.60
2023-02-24T03:56:50.832Z,18.80
2023-02-24T03:59:58.442Z,26.30
2023-02-24T04:03:06.211Z,18.70
2023-02-24T04:06:13.231Z,22.70
2023-02-24T04:09:21.162Z,23.10
2023-02-24T04:12:29.499Z,22.90
2023-02-24T04:15:36.502Z,20.90
2023-02-24T04:18:44.152Z,22.10
2023-02-24T04:21:51.686Z,16.60
2023-02-24T04:24:59.066Z,19.60
2023-02-24T04:28:06.960Z,17.70
2023-02-24T04:31:14.713Z,19.40
2023-02-24T04:34:22.106Z,22.50
2023-02-24T04:37:29.637Z,19.30
2023-02-24T04:40:37.248Z,24.80
2023-02-24T04:43:44.303Z,20.70
2023-02-24T04:46:51.620Z,25.10
2023-02-24T04:49:59.312Z,20.20
2023-02-24T04:53:06.697Z,16.80
2023-02-24T04:56:14.230Z,18.00
2023-02-24T04:59:22.644Z,11.20
2023-02-24T05:02:29.625Z,12.30
2023-02-24T05:05:37.551Z,16.70
2023-02-24T05:08:45.445Z,12.00
2023-02-24T05:11:52.588Z,20.10
2023-02-24T05:15:00.241Z,11.00
2023-02-24T05:18:07.705Z,10.20
2023-02-24T05:21:15.126Z,12.40
2023-02-24T05:24:22.989Z,8.10
2023-02-24T05:27:30.279Z,11.30
2023-02-24T05:30:37.837Z,10.10
2023-02-24T05:33:45.747Z,14.60
2023-02-24T05:36:53.309Z,11.10
2023-02-24T05:40:00.995Z,12.90
2023-02-24T05:43:08.085Z,10.50
2023-02-24T05:46:16.045Z,10.50
2023-02-24T06:02:48.938Z,17.50
2023-02-24T06:05:56.185Z,12.10
2023-02-24T06:09:03.701Z,6.20
2023-02-24T06:12:11.067Z,7.80
2023-02-24T06:15:18.075Z,9.00
2023-02-24T06:18:25.140Z,6.60
2023-02-24T06:21:32.592Z,10.10
2023-02-24T06:24:39.615Z,7.50
2023-02-24T06:27:47.190Z,6.30
2023-02-24T06:30:54.649Z,10.10
2023-02-24T06:34:02.356Z,8.50
2023-02-24T06:37:09.694Z,7.30
2023-02-24T06:40:17.045Z,7.30
2023-02-24T06:43:24.187Z,7.50
2023-02-24T06:46:32.125Z,4.90
2023-02-24T06:49:39.513Z,7.90
2023-02-24T06:52:47.024Z,5.70
2023-02-24T06:55:54.744Z,9.90
2023-02-24T06:59:02.222Z,7.90
2023-02-24T07:02:09.397Z,10.70
2023-02-24T07:05:17.065Z,13.20
2023-02-24T07:08:24.654Z,5.40
2023-02-24T07:11:32.112Z,6.60
2023-02-24T07:14:39.827Z,7.00
2023-02-24T07:17:48.495Z,6.30
2023-02-24T07:20:55.885Z,5.60
2023-02-24T07:24:03.727Z,6.30
2023-02-24T07:27:11.104Z,5.30
2023-02-24T07:30:18.233Z,7.60
2023-02-24T07:33:25.557Z,7.60
2023-02-24T07:36:33.194Z,6.80
2023-02-24T07:39:40.578Z,8.00
2023-02-24T07:42:48.137Z,9.00
2023-02-24T07:45:56.111Z,5.50
2023-02-24T07:49:03.320Z,7.10
2023-02-24T07:52:10.643Z,4.90
2023-02-24T07:55:18.289Z,5.70
2023-02-24T07:58:25.373Z,9.00
2023-02-24T08:01:33.713Z,6.10
2023-02-24T08:04:41.309Z,6.80
2023-02-24T08:07:48.325Z,5.30
2023-02-24T08:10:55.916Z,12.00
2023-02-24T08:14:03.476Z,10.10
2023-02-24T08:17:10.798Z,5.40
2023-02-24T08:20:18.549Z,3.90
2023-02-24T08:23:26.021Z,5.50
2023-02-24T08:26:33.555Z,9.20
2023-02-24T08:29:41.021Z,3.50
2023-02-24T08:32:48.322Z,10.10
2023-02-24T08:35:55.759Z,7.00
2023-02-24T08:39:02.820Z,5.30
2023-02-24T08:42:10.370Z,5.90
2023-02-24T08:45:18.077Z,5.70
2023-02-24T08:48:25.045Z,7.30
2023-02-24T08:51:32.788Z,7.00
2023-02-24T08:54:40.653Z,6.90
2023-02-24T08:57:47.849Z,10.90
2023-02-24T09:00:55.532Z,9.60
2023-02-24T09:04:02.912Z,8.30
2023-02-24T09:07:11.925Z,7.20
2023-02-24T09:10:19.902Z,4.60
2023-02-24T09:13:27.458Z,6.90
2023-02-24T09:16:34.881Z,4.20
2023-02-24T09:19:42.565Z,5.60
2023-02-24T09:22:50.094Z,7.70
2023-02-24T09:25:57.527Z,8.00
2023-02-24T09:29:05.059Z,6.30
2023-02-24T09:32:12.872Z,2.90
2023-02-24T09:35:19.906Z,6.30
2023-02-24T09:38:28.125Z,3.30
2023-02-24T09:41:36.172Z,6.10
2023-02-24T09:44:43.387Z,9.90
2023-02-24T09:47:51.066Z,6.80
2023-02-24T09:51:03.708Z,4.80
2023-02-24T09:54:01.356Z,8.10
2023-02-24T09:57:08.911Z,7.40
2023-02-24T10:00:16.510Z,10.30
2023-02-24T10:03:23.712Z,7.30
2023-02-24T10:06:31.351Z,8.50
2023-02-24T10:09:38.912Z,5.30
2023-02-24T10:12:46.472Z,15.10
2023-02-24T10:15:57.245Z,10.60
2023-02-24T10:18:54.602Z,9.30
2023-02-24T10:22:01.729Z,13.40
2023-02-24T10:25:09.641Z,8.60
2023-02-24T10:28:17.690Z,9.50
2023-02-24T10:31:26.126Z,10.30
2023-02-24T10:34:34.591Z,7.00
2023-02-24T10:37:42.634Z,8.50
2023-02-24T10:40:49.851Z,8.00
2023-02-24T10:43:57.596Z,6.90
2023-02-24T10:47:04.922Z,8.30
2023-02-24T10:50:12.902Z,11.70
2023-02-24T10:53:20.403Z,10.10
2023-02-24T10:56:30.060Z,9.40
2023-02-24T10:59:37.853Z,13.10
2023-02-24T11:02:45.141Z,11.80
2023-02-24T11:05:53.262Z,9.30
2023-02-24T11:09:00.946Z,7.00
2023-02-24T11:12:07.797Z,12.50
2023-02-24T11:15:15.537Z,10.70
2023-02-24T11:18:23.805Z,12.40
2023-02-24T11:21:31.082Z,12.70
2023-02-24T11:24:39.091Z,11.60
2023-02-24T11:27:46.418Z,11.10
2023-02-24T11:30:53.911Z,14.80
2023-02-24T11:34:01.701Z,10.20
2023-02-24T11:37:09.051Z,13.70
2023-02-24T11:40:16.773Z,13.10
2023-02-24T11:43:24.213Z,8.60
2023-02-24T11:46:32.004Z,13.30
2023-02-24T11:49:39.335Z,8.50
2023-02-24T11:52:46.561Z,12.70
2023-02-24T11:55:54.506Z,12.30
2023-02-24T11:59:01.739Z,6.50
2023-02-24T12:02:09.034Z,16.80
2023-02-24T12:05:17.214Z,8.50
2023-02-24T12:08:24.473Z,9.00
2023-02-24T12:11:32.078Z,14.30
2023-02-24T12:14:39.977Z,12.10
2023-02-24T12:17:47.054Z,12.10
2023-02-24T12:20:54.940Z,9.40
2023-02-24T12:24:02.721Z,7.30
2023-02-24T12:27:09.817Z,12.60
2023-02-24T12:30:17.764Z,12.90
2023-02-24T12:33:25.238Z,11.50
2023-02-24T12:36:32.416Z,10.80
2023-02-24T12:39:40.386Z,7.60
2023-02-24T12:42:47.801Z,13.20
2023-02-24T12:45:55.384Z,12.10
2023-02-24T12:49:02.860Z,15.00
2023-02-24T12:52:10.853Z,11.30
2023-02-24T12:55:18.297Z,8.70
2023-02-24T12:58:25.953Z,9.50
2023-02-24T13:01:33.865Z,10.10
2023-02-24T13:04:41.185Z,12.60
2023-02-24T13:07:48.362Z,11.60
2023-02-24T13:10:56.468Z,9.50
2023-02-24T13:14:04.546Z,13.50
2023-02-24T13:17:11.730Z,11.10
2023-02-24T13:20:20.002Z,13.10
2023-02-24T13:23:27.259Z,7.10
2023-02-24T13:26:35.156Z,11.90
2023-02-24T13:29:43.149Z,7.60
2023-02-24T13:32:50.272Z,8.30
2023-02-24T13:35:57.882Z,8.60
2023-02-24T13:39:05.304Z,9.10
2023-02-24T13:42:12.849Z,10.80
2023-02-24T13:45:20.617Z,7.30
2023-02-24T13:48:27.802Z,9.50
2023-02-24T13:51:35.199Z,8.30
2023-02-24T13:54:42.650Z,11.40
2023-02-24T13:57:49.943Z,12.60
2023-02-24T14:00:57.237Z,10.40
2023-02-24T14:04:04.645Z,10.10
2023-02-24T14:07:12.664Z,7.90
2023-02-24T14:10:19.965Z,8.20
2023-02-24T14:13:28.206Z,7.70
2023-02-24T14:16:36.298Z,8.20
2023-02-24T14:19:43.144Z,9.00
2023-02-24T14:22:51.042Z,11.50
2023-02-24T14:25:58.847Z,10.00
2023-02-24T14:29:05.849Z,10.90
2023-02-24T14:32:13.520Z,13.70
2023-02-24T14:35:20.980Z,11.30
2023-02-24T14:38:28.337Z,12.40
2023-02-24T14:41:36.013Z,8.50
2023-02-24T14:44:43.649Z,11.10
2023-02-24T14:47:51.074Z,9.70
2023-02-24T14:50:58.876Z,10.50
2023-02-24T14:54:06.239Z,9.40
2023-02-24T14:57:14.883Z,9.90
2023-02-24T15:00:22.027Z,11.80
2023-02-24T15:03:29.470Z,10.70
2023-02-24T15:06:36.897Z,7.70
2023-02-24T15:09:44.006Z,10.20
2023-02-24T15:12:51.656Z,9.10
2023-02-24T15:15:59.634Z,13.00
2023-02-24T15:19:06.643Z,9.30
2023-02-24T15:22:14.427Z,8.70
2023-02-24T15:25:28.107Z,8.20
2023-02-24T15:28:26.515Z,11.10
2023-02-24T15:31:34.318Z,10.00
2023-02-24T15:34:41.679Z,8.20
2023-02-24T15:37:49.221Z,11.40
2023-02-24T15:40:56.291Z,11.30
2023-02-24T15:44:04.107Z,9.90
2023-02-24T15:47:11.668Z,9.60
2023-02-24T15:50:18.941Z,10.30
2023-02-24T15:53:26.670Z,11.10
2023-02-24T15:56:33.874Z,14.40
2023-02-24T15:59:41.546Z,13.10
2023-02-24T16:02:49.097Z,12.10
2023-02-24T16:05:56.271Z,11.90
2023-02-24T16:09:03.619Z,13.50
2023-02-24T16:12:11.310Z,11.80
2023-02-24T16:15:18.275Z,18.60
2023-02-24T16:18:25.641Z,15.50
2023-02-24T16:21:33.337Z,15.70
2023-02-24T16:24:40.633Z,16.90
2023-02-24T16:27:48.046Z,17.60
2023-02-24T16:30:55.296Z,16.70
2023-02-24T16:34:03.350Z,16.30
2023-02-24T16:37:10.837Z,15.70
2023-02-24T16:40:18.099Z,15.30
2023-02-24T16:43:26.012Z,15.10
2023-02-24T16:46:33.427Z,17.50
2023-02-24T16:49:40.860Z,21.60
2023-02-24T16:52:48.726Z,16.50
2023-02-24T16:55:55.802Z,17.40
2023-02-24T16:59:03.388Z,19.20
2023-02-24T17:02:11.323Z,22.70
2023-02-24T17:05:18.437Z,17.50
2023-02-24T17:08:25.817Z,22.60
2023-02-24T17:11:33.593Z,20.20
2023-02-24T17:14:40.974Z,23.00
2023-02-24T17:17:48.739Z,23.30
2023-02-24T17:20:56.129Z,24.00
2023-02-24T17:24:03.501Z,27.70
2023-02-24T17:27:11.587Z,21.80
2023-02-24T17:30:18.927Z,22.90
2023-02-24T17:33:26.502Z,22.60
2023-02-24T17:36:34.052Z,21.50
2023-02-24T17:39:41.418Z,21.50
2023-02-24T17:42:48.903Z,21.90
2023-02-24T17:45:56.656Z,24.30
2023-02-24T17:49:04.263Z,24.20
2023-02-24T17:52:12.504Z,20.70
2023-02-24T17:55:19.817Z,24.90
2023-02-24T17:58:27.513Z,21.60
2023-02-24T18:01:34.939Z,22.00
2023-02-24T18:04:42.679Z,23.30
2023-02-24T18:07:50.617Z,23.90
2023-02-24T18:10:57.834Z,25.40
2023-02-24T18:14:05.812Z,21.80
2023-02-24T18:17:13.403Z,24.30
2023-02-24T18:20:20.901Z,20.90
2023-02-24T18:23:28.110Z,21.40
2023-02-24T18:26:35.820Z,24.60
2023-02-24T18:29:43.491Z,24.80
2023-02-24T18:32:51.590Z,24.60
2023-02-24T18:35:59.210Z,23.80
2023-02-24T18:39:06.736Z,28.90
2023-02-24T18:42:14.256Z,28.40
2023-02-24T18:45:21.630Z,26.70
2023-02-24T18:48:29.504Z,25.50
2023-02-24T18:51:37.761Z,29.80
2023-02-24T18:54:45.043Z,30.00
2023-02-24T18:57:52.959Z,27.10
2023-02-24T19:01:00.190Z,23.10
2023-02-24T19:04:07.424Z,24.40
2023-02-24T19:07:15.312Z,23.80
2023-02-24T19:10:22.773Z,21.00
2023-02-24T19:13:30.133Z,20.90
2023-02-24T19:16:38.098Z,22.50
2023-02-24T19:19:45.056Z,22.30
2023-02-24T19:22:52.659Z,16.70
2023-02-24T19:26:00.357Z,19.80
2023-02-24T19:29:07.777Z,24.00
2023-02-24T19:32:15.421Z,21.80
2023-02-24T19:35:22.704Z,24.40
2023-02-24T19:38:29.758Z,24.80
2023-02-24T19:41:37.659Z,26.30
2023-02-24T19:44:44.796Z,24.00
2023-02-24T19:47:52.515Z,16.20
2023-02-24T19:50:59.999Z,15.00
2023-02-24T19:54:07.721Z,21.80
2023-02-24T19:57:15.619Z,17.10
2023-02-24T20:00:22.668Z,20.70
2023-02-24T20:03:30.363Z,20.70
2023-02-24T20:06:38.104Z,18.40
2023-02-24T20:09:45.332Z,23.00
2023-02-24T20:12:52.830Z,18.80
2023-02-24T20:16:00.496Z,20.50
2023-02-24T20:19:07.635Z,22.20
2023-02-24T20:22:15.479Z,23.00
2023-02-24T20:25:22.792Z,21.90
2023-02-24T20:28:29.751Z,20.70
2023-02-24T20:31:37.663Z,26.90
2023-02-24T20:34:45.552Z,23.20
2023-02-24T20:37:52.356Z,25.30
2023-02-24T20:41:00.573Z,21.50
2023-02-24T20:44:07.892Z,25.10
2023-02-24T20:47:17.075Z,23.50
2023-02-24T20:50:25.529Z,24.10
2023-02-24T20:53:32.884Z,21.20
2023-02-24T20:56:40.510Z,21.80
2023-02-24T21:00:02.511Z,21.30
2023-02-24T21:02:52.709Z,19.40
2023-02-24T21:06:09.539Z,22.50
2023-02-24T21:09:05.165Z,21.50
2023-02-24T21:12:12.640Z,20.70
2023-02-24T21:15:20.638Z,16.10
2023-02-24T21:18:28.284Z,21.00
2023-02-24T21:21:36.302Z,20.80
2023-02-24T21:24:44.054Z,16.90
2023-02-24T21:27:51.169Z,18.90
2023-02-24T21:30:59.102Z,19.70
2023-02-24T21:34:06.487Z,26.30
2023-02-24T21:37:13.813Z,21.70
2023-02-24T21:40:21.310Z,19.20
2023-02-24T21:43:28.391Z,21.00
2023-02-24T21:46:35.952Z,18.10
2023-02-24T21:49:43.774Z,21.90
2023-02-24T21:52:50.791Z,25.50
2023-02-24T21:55:58.356Z,27.40
2023-02-24T21:59:05.635Z,18.50
2023-02-24T22:02:12.664Z,20.40
2023-02-24T22:05:20.476Z,25.90
2023-02-24T22:08:27.983Z,27.60
2023-02-24T22:11:35.354Z,29.40
2023-02-24T22:14:43.205Z,30.00
2023-02-24T22:17:50.678Z,25.60
2023-02-24T22:20:57.946Z,25.00
2023-02-24T22:24:05.718Z,28.00
2023-02-24T22:27:13.139Z,24.20
2023-02-24T22:30:20.732Z,19.30
2023-02-24T22:33:28.142Z,20.40
2023-02-24T22:36:35.923Z,23.10
2023-02-24T22:39:43.404Z,16.50
2023-02-24T22:42:50.707Z,19.70
2023-02-24T22:45:58.355Z,19.10
2023-02-24T22:49:05.326Z,28.20
2023-02-24T22:52:12.620Z,24.20
2023-02-24T22:55:20.357Z,25.60
2023-02-24T22:58:27.660Z,20.10
2023-02-24T23:01:34.802Z,26.20
2023-02-24T23:04:42.439Z,31.00
2023-02-24T23:07:49.539Z,24.00
2023-02-24T23:10:57.307Z,30.60
2023-02-24T23:14:05.172Z,26.90
2023-02-24T23:17:12.156Z,20.60
2023-02-24T23:20:19.774Z,26.50
2023-02-24T23:23:27.556Z,23.90
2023-02-24T23:26:34.530Z,31.10
2023-02-24T23:29:42.292Z,20.50
2023-02-24T23:32:49.774Z,36.40
2023-02-24T23:35:57.483Z,28.40
2023-02-24T23:39:04.552Z,39.30
2023-02-24T23:42:11.937Z,31.20
2023-02-24T23:45:19.438Z,31.10
2023-02-24T23:48:26.845Z,25.30
2023-02-24T23:51:49.344Z,32.60
2023-02-24T23:54:38.830Z,28.70
2023-02-24T23:57:46.200Z,22.80
